Time;durP1;ratioP1;P1;durP2;ratioP2;P2;SDS_P1;SDS_P2;PMS_P1;PMS_P2;Temp;Humidity;BMP_temperature;BMP_pressure;BME280_temperature;BME280_humidity;BME280_pressure;Samples;Min_cycle;Max_cycle;Signal;HPM_P1;HPM_P2
2021/12/06 00:01:32;;;;;;;7.60;3.75;;;6.40;96.70;;;;;;4962289;28;20055;-69
2021/12/06 00:04:06;;;;;;;9.52;3.78;;;6.30;96.70;;;;;;4944103;28;20039;-69
2021/12/06 00:06:37;;;;;;;5.82;3.40;;;6.20;96.70;;;;;;4963404;28;20120;-70
2021/12/06 00:09:14;;;;;;;7.28;3.63;;;6.20;96.70;;;;;;4962753;28;20055;-69
2021/12/06 00:11:43;;;;;;;7.47;3.60;;;6.00;96.70;;;;;;4962223;28;20184;-70
2021/12/06 00:14:11;;;;;;;6.22;3.78;;;6.00;96.70;;;;;;4958060;28;20662;-70
2021/12/06 00:16:39;;;;;;;7.63;3.95;;;6.00;96.70;;;;;;4960602;28;20049;-70
2021/12/06 00:19:07;;;;;;;8.95;4.22;;;6.10;96.70;;;;;;4963985;28;20046;-70
2021/12/06 00:21:35;;;;;;;7.97;4.45;;;6.20;96.70;;;;;;4964271;28;20332;-70
2021/12/06 00:24:04;;;;;;;9.25;4.63;;;6.20;96.70;;;;;;4945512;28;20053;-70
2021/12/06 00:26:33;;;;;;;7.28;4.20;;;6.20;96.70;;;;;;4941679;28;20043;-70
2021/12/06 00:29:02;;;;;;;8.02;4.22;;;6.10;96.70;;;;;;4966160;28;20047;-70
2021/12/06 00:31:33;;;;;;;8.18;4.45;;;6.10;96.70;;;;;;4962203;28;20050;-70
2021/12/06 00:34:05;;;;;;;8.70;4.50;;;6.10;96.70;;;;;;4928304;28;20161;-70
2021/12/06 00:36:39;;;;;;;9.23;4.88;;;6.20;96.70;;;;;;4928013;28;20057;-69
2021/12/06 00:39:11;;;;;;;7.93;4.38;;;6.20;96.70;;;;;;4964328;28;20157;-70
2021/12/06 00:41:41;;;;;;;8.43;4.60;;;6.20;96.70;;;;;;4923280;28;20455;-69
2021/12/06 00:44:09;;;;;;;8.10;4.75;;;6.20;96.70;;;;;;4941771;28;20077;-70
2021/12/06 00:46:38;;;;;;;10.05;4.93;;;6.10;96.70;;;;;;4943662;28;20046;-70
2021/12/06 00:49:07;;;;;;;10.45;4.78;;;6.10;96.70;;;;;;4964164;28;20042;-70
2021/12/06 00:51:36;;;;;;;8.82;4.68;;;6.10;96.70;;;;;;4943178;28;20065;-70
2021/12/06 00:54:04;;;;;;;7.93;4.50;;;6.10;96.70;;;;;;4962254;28;20125;-70
2021/12/06 00:56:33;;;;;;;7.63;4.00;;;6.10;96.70;;;;;;4943728;28;20462;-70
2021/12/06 00:59:03;;;;;;;9.68;4.40;;;6.10;96.70;;;;;;4944746;28;20059;-70
2021/12/06 01:01:32;;;;;;;7.45;4.07;;;6.10;96.70;;;;;;4945708;28;20141;-70
2021/12/06 01:04:02;;;;;;;8.52;4.88;;;6.00;96.70;;;;;;4941058;28;20143;-70
2021/12/06 01:06:31;;;;;;;7.57;4.28;;;6.00;96.70;;;;;;4948206;28;20050;-70
2021/12/06 01:08:59;;;;;;;8.60;5.25;;;5.90;96.70;;;;;;4941241;28;20049;-70
2021/12/06 01:11:28;;;;;;;9.00;4.85;;;5.90;96.70;;;;;;4947668;28;20068;-70
2021/12/06 01:13:56;;;;;;;7.68;4.40;;;5.90;96.70;;;;;;4946232;28;20074;-70
2021/12/06 01:16:26;;;;;;;7.13;4.15;;;5.90;96.70;;;;;;4963826;28;20488;-70
2021/12/06 01:18:54;;;;;;;7.43;3.80;;;6.00;96.70;;;;;;4959951;28;20039;-70
2021/12/06 01:21:39;;;;;;;8.88;4.47;;;6.00;96.70;;;;;;4942834;28;20509;-71
2021/12/06 01:24:10;;;;;;;7.55;3.42;;;6.10;96.70;;;;;;4936399;28;20098;-70
2021/12/06 01:27:08;;;;;;;10.50;4.00;;;6.10;96.70;;;;;;4947073;28;20038;-70
2021/12/06 01:33:05;;;;;;;6.78;4.03;;;6.20;96.70;;;;;;4943231;28;20138;-70
2021/12/06 01:40:39;;;;;;;7.35;4.50;;;6.20;96.70;;;;;;4942432;28;20050;-70
2021/12/06 01:43:10;;;;;;;6.43;3.83;;;6.20;96.70;;;;;;4946162;28;20043;-70
2021/12/06 01:45:38;;;;;;;6.43;3.83;;;6.20;96.70;;;;;;4944225;28;20559;-71
2021/12/06 01:48:10;;;;;;;7.88;4.47;;;6.20;96.70;;;;;;4930870;28;20085;-70
2021/12/06 01:50:38;;;;;;;5.07;3.38;;;6.20;96.70;;;;;;4947663;28;20629;-71
2021/12/06 01:53:07;;;;;;;9.65;5.05;;;6.20;96.70;;;;;;4940819;28;20055;-70
2021/12/06 01:55:38;;;;;;;6.32;4.20;;;6.20;96.70;;;;;;4940792;28;20051;-70
2021/12/06 01:58:07;;;;;;;7.70;4.82;;;6.20;96.70;;;;;;4942019;28;20046;-70
2021/12/06 02:00:40;;;;;;;7.10;4.80;;;6.30;96.70;;;;;;4964319;28;20524;-70
2021/12/06 02:03:15;;;;;;;6.97;5.00;;;6.40;96.70;;;;;;4931003;28;20054;-70
2021/12/06 02:05:50;;;;;;;10.82;6.13;;;6.40;96.70;;;;;;4937102;28;20080;-70
2021/12/06 02:08:23;;;;;;;10.32;7.22;;;6.30;96.70;;;;;;4942972;28;20560;-70
2021/12/06 02:10:58;;;;;;;10.65;7.80;;;6.20;96.70;;;;;;4942827;28;20444;-70
2021/12/06 02:13:31;;;;;;;10.90;7.77;;;6.20;96.70;;;;;;4962947;28;20047;-70
2021/12/06 02:16:02;;;;;;;11.65;7.88;;;6.10;96.70;;;;;;4928655;28;20146;-70
2021/12/06 02:21:20;;;;;;;11.02;8.30;;;6.30;96.70;;;;;;4964408;28;20062;-70
2021/12/06 02:23:49;;;;;;;10.80;8.50;;;6.30;96.70;;;;;;4964666;28;20054;-70
2021/12/06 02:26:20;;;;;;;11.45;7.80;;;6.30;96.70;;;;;;4929617;28;20043;-70
2021/12/06 02:28:48;;;;;;;12.52;8.18;;;6.40;96.70;;;;;;4940693;28;20074;-70
2021/12/06 02:31:20;;;;;;;11.23;8.02;;;6.40;96.70;;;;;;4942404;28;20066;-70
2021/12/06 02:33:49;;;;;;;9.48;7.40;;;6.40;96.70;;;;;;4946264;28;20046;-70
2021/12/06 02:36:22;;;;;;;11.63;7.40;;;6.30;96.70;;;;;;4931225;28;20055;-70
2021/12/06 02:38:51;;;;;;;9.60;6.95;;;6.30;96.70;;;;;;4945509;28;20075;-70
2021/12/06 02:41:21;;;;;;;8.55;6.45;;;6.40;96.70;;;;;;4965420;28;20086;-70
2021/12/06 02:43:52;;;;;;;9.15;6.45;;;6.50;96.70;;;;;;4938096;28;20460;-70
2021/12/06 02:46:22;;;;;;;8.77;6.65;;;6.50;96.70;;;;;;4944076;28;20145;-70
2021/12/06 02:48:51;;;;;;;10.13;6.50;;;6.50;96.70;;;;;;4947723;28;20050;-69
2021/12/06 02:51:22;;;;;;;9.07;5.90;;;6.60;96.70;;;;;;4946841;28;20150;-70
2021/12/06 02:53:50;;;;;;;8.98;5.88;;;6.60;96.70;;;;;;4947936;28;20062;-69
2021/12/06 02:56:34;;;;;;;10.40;6.43;;;6.60;96.70;;;;;;4946291;28;20053;-71
2021/12/06 02:59:06;;;;;;;8.32;5.63;;;6.60;96.70;;;;;;4946278;28;20049;-70
2021/12/06 03:01:39;;;;;;;7.78;5.10;;;6.70;96.70;;;;;;4947869;28;20055;-70
2021/12/06 03:04:08;;;;;;;6.65;5.30;;;6.70;96.70;;;;;;4947263;28;20405;-70
2021/12/06 03:06:40;;;;;;;8.70;5.63;;;6.70;96.70;;;;;;4964301;28;20055;-70
2021/12/06 03:09:12;;;;;;;6.50;4.90;;;6.60;96.70;;;;;;4944820;28;20129;-70
2021/12/06 03:11:44;;;;;;;7.95;5.03;;;6.70;96.70;;;;;;4946376;28;20105;-71
2021/12/06 03:14:14;;;;;;;7.03;5.07;;;6.70;96.70;;;;;;4947026;28;20047;-72
2021/12/06 03:16:43;;;;;;;6.93;4.60;;;6.80;96.70;;;;;;4965543;28;20046;-72
2021/12/06 03:19:12;;;;;;;6.97;4.43;;;6.80;96.70;;;;;;4941733;28;20047;-72
2021/12/06 03:21:41;;;;;;;5.45;4.50;;;6.80;96.70;;;;;;4945663;28;20137;-73
2021/12/06 03:24:10;;;;;;;5.85;4.05;;;6.80;96.70;;;;;;4945470;28;20138;-72
2021/12/06 03:26:40;;;;;;;5.70;3.88;;;6.70;96.70;;;;;;4946969;28;20039;-73
2021/12/06 03:29:10;;;;;;;6.68;4.20;;;6.70;96.70;;;;;;4939155;28;20051;-70
2021/12/06 03:31:38;;;;;;;5.40;4.10;;;6.80;96.70;;;;;;4927330;28;20046;-72
2021/12/06 03:34:09;;;;;;;5.05;3.92;;;6.80;96.70;;;;;;4963531;28;20042;-72
2021/12/06 03:36:41;;;;;;;5.13;3.70;;;6.80;96.70;;;;;;4946253;28;20420;-72
2021/12/06 03:39:20;;;;;;;4.68;3.40;;;6.80;96.70;;;;;;4944998;28;20089;-72
2021/12/06 03:41:48;;;;;;;5.22;3.90;;;6.80;96.70;;;;;;4944050;28;20671;-72
2021/12/06 03:44:18;;;;;;;5.10;3.28;;;6.70;96.70;;;;;;4938456;28;20122;-72
2021/12/06 03:46:46;;;;;;;4.35;3.33;;;6.70;96.70;;;;;;4945413;28;20047;-72
2021/12/06 03:49:16;;;;;;;4.53;3.33;;;6.80;96.70;;;;;;4961758;28;20054;-73
2021/12/06 03:51:47;;;;;;;4.53;3.20;;;6.90;96.70;;;;;;4937766;28;20229;-72
2021/12/06 03:54:18;;;;;;;4.38;3.17;;;6.80;96.70;;;;;;4945655;28;20075;-72
2021/12/06 03:56:47;;;;;;;5.55;3.72;;;6.80;96.70;;;;;;4945268;28;20053;-71
2021/12/06 03:59:16;;;;;;;4.70;3.33;;;6.80;96.70;;;;;;4945401;28;20493;-72
2021/12/06 04:01:46;;;;;;;5.07;3.63;;;6.90;96.70;;;;;;4946491;28;20061;-72
2021/12/06 04:04:20;;;;;;;4.57;3.25;;;6.80;96.70;;;;;;4945178;28;20471;-72
2021/12/06 04:06:50;;;;;;;5.28;3.38;;;6.80;96.70;;;;;;4943923;29;20035;-72
2021/12/06 04:09:21;;;;;;;4.88;3.30;;;6.80;96.70;;;;;;4945126;28;20059;-70
2021/12/06 04:11:50;;;;;;;3.85;2.85;;;6.80;96.70;;;;;;4931035;28;20141;-70
2021/12/06 04:14:19;;;;;;;4.30;3.13;;;6.80;96.70;;;;;;4958753;28;20055;-71
2021/12/06 04:16:47;;;;;;;3.72;2.78;;;6.80;96.70;;;;;;4943479;28;20035;-70
2021/12/06 04:19:17;;;;;;;2.80;2.20;;;6.80;96.70;;;;;;4939471;28;20053;-70
2021/12/06 04:21:46;;;;;;;4.55;2.95;;;6.90;96.70;;;;;;4942451;28;20042;-71
2021/12/06 04:24:16;;;;;;;3.45;2.42;;;6.90;96.70;;;;;;4947411;28;20050;-71
2021/12/06 04:26:45;;;;;;;3.42;2.42;;;6.90;96.70;;;;;;4940371;28;20330;-70
2021/12/06 04:29:16;;;;;;;3.70;2.47;;;6.90;96.70;;;;;;4945831;28;20047;-70
2021/12/06 04:31:47;;;;;;;3.67;2.78;;;6.90;96.70;;;;;;4946400;28;20043;-70
2021/12/06 04:34:17;;;;;;;3.97;2.85;;;6.90;96.70;;;;;;4963695;28;20500;-70
2021/12/06 04:36:47;;;;;;;3.17;2.42;;;6.90;96.70;;;;;;4944651;28;20045;-70
2021/12/06 04:39:19;;;;;;;3.25;2.40;;;6.90;96.70;;;;;;4931523;28;20515;-70
2021/12/06 04:41:50;;;;;;;3.63;2.30;;;6.90;96.70;;;;;;4963659;28;20105;-70
2021/12/06 04:44:19;;;;;;;3.83;2.70;;;6.80;96.70;;;;;;4947262;28;20047;-70
2021/12/06 04:46:48;;;;;;;3.38;2.45;;;6.90;96.70;;;;;;4941494;28;20362;-70
2021/12/06 04:49:17;;;;;;;3.38;2.60;;;6.80;96.70;;;;;;4960282;28;20047;-70
2021/12/06 04:51:49;;;;;;;3.55;2.53;;;6.80;96.70;;;;;;4962219;28;20046;-70
2021/12/06 04:54:22;;;;;;;4.05;2.67;;;6.70;96.70;;;;;;4936904;28;20138;-70
2021/12/06 04:56:53;;;;;;;4.35;3.08;;;6.70;96.70;;;;;;4944944;28;20050;-70
2021/12/06 04:59:25;;;;;;;4.43;3.35;;;6.70;96.70;;;;;;4943478;28;20070;-69
2021/12/06 05:02:00;;;;;;;4.70;3.53;;;6.70;96.70;;;;;;4946453;28;20161;-70
2021/12/06 05:04:32;;;;;;;6.03;3.63;;;6.70;96.70;;;;;;4959604;28;20048;-70
2021/12/06 05:07:05;;;;;;;5.78;3.88;;;6.60;96.70;;;;;;4963400;28;20057;-71
2021/12/06 05:09:39;;;;;;;5.20;4.18;;;6.60;96.70;;;;;;4944702;28;20051;-70
2021/12/06 05:12:11;;;;;;;5.57;4.22;;;6.50;96.70;;;;;;4940333;28;20150;-70
2021/12/06 05:14:40;;;;;;;6.20;4.40;;;6.50;96.70;;;;;;4937030;29;20149;-70
2021/12/06 05:17:08;;;;;;;6.10;4.63;;;6.40;96.70;;;;;;4957209;28;20504;-70
2021/12/06 05:19:37;;;;;;;6.82;5.00;;;6.40;96.70;;;;;;4943201;28;20039;-70
2021/12/06 05:22:07;;;;;;;6.13;4.93;;;6.40;96.70;;;;;;4931157;28;20093;-70
2021/12/06 05:24:37;;;;;;;6.57;4.60;;;6.40;96.70;;;;;;4920096;29;20103;-70
2021/12/06 05:27:06;;;;;;;7.22;4.22;;;6.40;96.70;;;;;;4938966;28;21069;-70
2021/12/06 05:29:37;;;;;;;5.35;4.20;;;6.40;96.70;;;;;;4939652;28;20509;-70
2021/12/06 05:32:06;;;;;;;5.35;4.05;;;6.40;96.70;;;;;;4962669;28;20051;-70
2021/12/06 05:34:39;;;;;;;5.95;3.70;;;6.40;96.70;;;;;;4962096;28;21038;-70
2021/12/06 05:37:11;;;;;;;5.60;4.00;;;6.40;96.70;;;;;;4960725;28;20085;-70
2021/12/06 05:39:41;;;;;;;4.55;3.47;;;6.50;96.70;;;;;;4958558;28;20057;-70
2021/12/06 05:42:11;;;;;;;4.43;3.40;;;6.40;96.70;;;;;;4958027;28;20050;-70
2021/12/06 05:44:40;;;;;;;6.00;4.20;;;6.40;96.70;;;;;;4937752;28;20046;-70
2021/12/06 05:47:09;;;;;;;6.30;4.18;;;6.40;96.70;;;;;;4942937;28;20458;-71
2021/12/06 05:49:37;;;;;;;4.38;3.83;;;6.40;96.70;;;;;;4962807;28;20417;-70
2021/12/06 05:52:06;;;;;;;5.15;3.80;;;6.30;96.70;;;;;;4962279;28;20054;-70
2021/12/06 05:54:34;;;;;;;5.35;3.42;;;6.30;96.70;;;;;;4962186;28;20046;-70
2021/12/06 05:57:06;;;;;;;4.80;3.17;;;6.20;96.70;;;;;;4961699;28;20047;-70
2021/12/06 05:59:35;;;;;;;5.80;3.33;;;6.20;96.70;;;;;;4963834;28;20069;-70
2021/12/06 06:02:04;;;;;;;4.35;3.10;;;6.20;96.70;;;;;;4944000;28;20472;-70
2021/12/06 06:04:33;;;;;;;6.25;3.80;;;6.20;96.70;;;;;;4941027;28;20517;-70
2021/12/06 06:07:00;;;;;;;7.28;3.50;;;6.20;96.70;;;;;;4946952;28;20161;-70
2021/12/06 06:09:28;;;;;;;4.53;3.40;;;6.10;96.70;;;;;;4965232;28;20101;-70
2021/12/06 06:11:56;;;;;;;7.05;3.40;;;6.00;96.70;;;;;;4961518;28;20133;-70
2021/12/06 06:14:26;;;;;;;4.65;3.45;;;6.00;96.70;;;;;;4948368;28;20671;-70
2021/12/06 06:16:56;;;;;;;5.60;3.47;;;6.10;96.70;;;;;;4963984;28;20386;-70
2021/12/06 06:19:25;;;;;;;5.30;3.30;;;6.10;96.70;;;;;;4947097;28;20438;-69
2021/12/06 06:21:53;;;;;;;5.18;3.33;;;6.10;96.70;;;;;;4949088;28;20382;-70
2021/12/06 06:24:22;;;;;;;6.65;3.72;;;6.20;96.70;;;;;;4939632;28;20157;-70
2021/12/06 06:26:50;;;;;;;5.90;3.67;;;6.00;96.70;;;;;;4963193;28;20166;-70
2021/12/06 06:29:19;;;;;;;4.65;2.63;;;6.10;96.70;;;;;;4951566;28;20110;-71
2021/12/06 06:31:48;;;;;;;6.90;4.05;;;6.10;96.70;;;;;;4965371;28;20053;-70
2021/12/06 06:34:16;;;;;;;7.20;4.70;;;6.20;96.70;;;;;;4968387;28;20526;-70
2021/12/06 06:36:45;;;;;;;9.40;5.63;;;6.10;96.70;;;;;;4948588;28;20514;-71
2021/12/06 06:39:13;;;;;;;10.15;7.10;;;6.10;96.70;;;;;;4966866;28;20061;-70
2021/12/06 06:41:41;;;;;;;9.48;6.50;;;6.00;96.70;;;;;;4948846;28;20440;-70
2021/12/06 06:44:09;;;;;;;6.07;4.75;;;6.00;96.70;;;;;;4934969;28;20086;-70
2021/12/06 06:46:37;;;;;;;5.95;4.15;;;6.00;96.70;;;;;;4966126;28;20618;-70
2021/12/06 06:49:07;;;;;;;5.53;3.83;;;6.00;96.70;;;;;;4968190;28;20069;-70
2021/12/06 06:51:35;;;;;;;5.82;3.65;;;6.10;96.70;;;;;;4966894;28;20047;-70
2021/12/06 06:54:04;;;;;;;8.23;4.03;;;6.10;96.70;;;;;;4949112;28;20047;-70
2021/12/06 06:56:33;;;;;;;4.13;3.03;;;6.20;96.70;;;;;;4967480;28;20105;-71
2021/12/06 06:59:01;;;;;;;6.72;3.55;;;6.10;96.70;;;;;;4965159;28;20043;-70
2021/12/06 07:01:29;;;;;;;4.05;3.17;;;6.10;96.70;;;;;;4967109;28;20055;-70
2021/12/06 07:03:57;;;;;;;6.57;3.40;;;6.10;96.70;;;;;;4962864;28;20042;-70
2021/12/06 07:06:28;;;;;;;3.80;2.63;;;6.20;96.70;;;;;;4966338;28;20050;-70
2021/12/06 07:08:57;;;;;;;6.43;3.50;;;6.20;96.70;;;;;;4946752;28;20043;-70
2021/12/06 07:11:27;;;;;;;5.28;3.15;;;6.20;96.70;;;;;;4929891;28;20393;-71
2021/12/06 07:13:56;;;;;;;7.38;2.95;;;6.10;96.70;;;;;;4965867;28;20132;-70
2021/12/06 07:16:24;;;;;;;7.88;3.30;;;6.00;96.70;;;;;;4966708;28;20054;-70
2021/12/06 07:18:53;;;;;;;6.90;3.72;;;6.00;96.70;;;;;;4945461;28;20132;-70
2021/12/06 07:21:22;;;;;;;4.70;3.53;;;6.00;96.70;;;;;;4963294;28;20563;-70
2021/12/06 07:23:52;;;;;;;6.40;4.20;;;6.00;96.70;;;;;;4947575;28;20055;-71
2021/12/06 07:26:22;;;;;;;6.68;4.15;;;6.00;96.70;;;;;;4961016;28;20053;-70
2021/12/06 07:28:54;;;;;;;7.45;3.92;;;6.10;96.70;;;;;;4963031;28;20055;-70
2021/12/06 07:31:23;;;;;;;7.75;4.65;;;6.10;96.70;;;;;;4934259;28;20046;-70
2021/12/06 07:33:53;;;;;;;6.93;3.92;;;6.20;96.70;;;;;;4962092;28;20070;-70
2021/12/06 07:36:23;;;;;;;5.90;4.15;;;6.30;96.70;;;;;;4947766;28;20089;-70
2021/12/06 07:38:53;;;;;;;6.13;4.13;;;6.30;96.70;;;;;;4946423;28;20053;-72
2021/12/06 07:41:23;;;;;;;9.90;5.03;;;6.40;96.70;;;;;;4947545;28;20105;-73
2021/12/06 07:43:51;;;;;;;9.45;5.25;;;6.40;96.70;;;;;;4963940;28;20042;-72
2021/12/06 07:46:19;;;;;;;7.22;5.15;;;6.50;96.70;;;;;;4967498;28;20039;-72
2021/12/06 07:48:52;;;;;;;9.07;5.03;;;6.40;96.70;;;;;;4942915;28;20126;-72
2021/12/06 07:51:21;;;;;;;7.82;4.90;;;6.60;96.70;;;;;;4967737;28;20053;-71
2021/12/06 07:53:50;;;;;;;8.20;5.32;;;6.70;96.70;;;;;;4961212;28;20136;-72
2021/12/06 07:56:20;;;;;;;6.82;4.45;;;6.70;96.70;;;;;;4947912;28;20058;-72
2021/12/06 07:58:49;;;;;;;8.27;4.72;;;6.90;96.70;;;;;;4946509;28;20164;-72
2021/12/06 08:01:17;;;;;;;10.75;5.32;;;7.00;96.70;;;;;;4946157;28;20060;-72
2021/12/06 08:03:47;;;;;;;9.27;4.95;;;7.10;96.70;;;;;;4962113;28;20501;-72
2021/12/06 08:06:15;;;;;;;6.35;4.53;;;7.20;96.70;;;;;;4949147;28;20039;-72
2021/12/06 08:08:44;;;;;;;6.75;4.47;;;7.20;96.70;;;;;;4938871;28;20050;-72
2021/12/06 08:11:15;;;;;;;14.02;4.75;;;7.30;96.70;;;;;;4946255;28;20039;-73
2021/12/06 08:13:47;;;;;;;9.63;5.32;;;7.30;96.70;;;;;;4965283;28;20110;-72
2021/12/06 08:16:19;;;;;;;8.02;4.63;;;7.40;96.70;;;;;;4946104;28;20517;-72
2021/12/06 08:18:47;;;;;;;10.40;5.03;;;7.50;96.70;;;;;;4925174;28;20039;-73
2021/12/06 08:21:18;;;;;;;11.18;5.00;;;7.60;96.70;;;;;;4964511;28;20034;-72
2021/12/06 08:23:48;;;;;;;8.82;5.25;;;7.70;96.70;;;;;;4949082;28;20042;-75
2021/12/06 08:26:18;;;;;;;10.05;4.80;;;7.70;96.70;;;;;;4941538;28;20155;-73
2021/12/06 08:28:48;;;;;;;5.00;3.97;;;7.80;96.70;;;;;;4962567;28;20082;-72
2021/12/06 08:31:22;;;;;;;7.32;4.25;;;7.80;96.70;;;;;;4963770;28;20138;-72
2021/12/06 08:33:51;;;;;;;6.28;3.60;;;7.90;96.70;;;;;;4942541;28;20137;-72
2021/12/06 08:36:21;;;;;;;5.85;3.50;;;7.90;96.70;;;;;;4960706;28;20047;-73
2021/12/06 08:38:50;;;;;;;8.38;3.28;;;7.90;96.70;;;;;;4966628;28;20386;-73
2021/12/06 08:41:20;;;;;;;3.90;2.75;;;8.00;96.70;;;;;;4960430;28;20043;-73
2021/12/06 08:43:53;;;;;;;4.55;2.95;;;8.10;96.70;;;;;;4935930;28;20049;-72
2021/12/06 08:46:25;;;;;;;6.45;3.22;;;8.20;96.70;;;;;;4958818;28;20106;-73
2021/12/06 08:48:55;;;;;;;5.18;2.85;;;8.30;96.70;;;;;;4948576;28;20457;-73
2021/12/06 08:51:26;;;;;;;4.07;2.50;;;8.40;96.70;;;;;;4946820;28;20066;-73
2021/12/06 08:53:55;;;;;;;4.72;2.70;;;8.40;96.70;;;;;;4966032;28;20042;-72
2021/12/06 08:56:23;;;;;;;5.68;2.85;;;8.50;96.70;;;;;;4962012;28;20501;-72
2021/12/06 08:58:54;;;;;;;4.18;2.80;;;8.60;96.70;;;;;;4965774;28;20229;-72
2021/12/06 09:01:22;;;;;;;5.97;2.92;;;8.70;96.70;;;;;;4945506;28;20066;-72
2021/12/06 09:04:12;;;;;;;4.85;2.88;;;8.80;96.70;;;;;;4935033;28;20584;-72
2021/12/06 09:06:43;;;;;;;7.22;3.63;;;8.90;96.70;;;;;;4964931;28;20121;-72
2021/12/06 09:09:12;;;;;;;9.05;4.47;;;8.90;96.70;;;;;;4947115;28;20404;-74
2021/12/06 09:11:43;;;;;;;11.00;4.95;;;9.00;96.70;;;;;;4923564;28;20035;-72
2021/12/06 09:14:13;;;;;;;9.93;4.88;;;9.00;96.70;;;;;;4958400;28;20134;-73
2021/12/06 09:16:42;;;;;;;7.60;4.82;;;9.20;96.70;;;;;;4947528;28;20141;-74
2021/12/06 09:19:12;;;;;;;8.95;4.72;;;9.20;96.70;;;;;;4929648;28;20039;-73
2021/12/06 09:21:43;;;;;;;9.90;4.75;;;9.30;96.70;;;;;;4945554;28;20051;-73
2021/12/06 09:24:14;;;;;;;7.70;3.88;;;9.40;96.70;;;;;;4927057;28;20065;-73
2021/12/06 09:26:42;;;;;;;5.13;3.15;;;9.60;96.70;;;;;;4926562;28;20652;-73
2021/12/06 09:29:11;;;;;;;5.30;2.50;;;9.70;96.70;;;;;;4943028;28;20037;-74
2021/12/06 09:31:40;;;;;;;4.18;2.20;;;9.80;96.70;;;;;;4934648;28;20513;-74
2021/12/06 09:34:09;;;;;;;2.55;1.55;;;9.90;96.70;;;;;;4940501;28;20067;-74
2021/12/06 09:36:37;;;;;;;1.42;1.00;;;10.00;96.70;;;;;;4964679;28;20398;-74
2021/12/06 09:39:06;;;;;;;1.75;1.00;;;10.00;96.70;;;;;;4945111;28;20055;-74
2021/12/06 09:41:35;;;;;;;2.90;1.60;;;10.10;96.70;;;;;;4930403;28;20050;-74
2021/12/06 09:44:06;;;;;;;1.80;1.20;;;10.20;96.70;;;;;;4944972;28;20043;-74
2021/12/06 09:46:37;;;;;;;1.15;0.75;;;10.20;96.70;;;;;;4947662;28;20061;-74
2021/12/06 09:49:07;;;;;;;1.67;0.90;;;10.20;96.70;;;;;;4960443;28;20057;-74
2021/12/06 09:51:37;;;;;;;1.50;0.70;;;10.30;96.70;;;;;;4947455;28;20564;-74
2021/12/06 09:54:06;;;;;;;1.38;0.60;;;10.30;96.70;;;;;;4943665;28;20078;-73
2021/12/06 09:56:37;;;;;;;1.10;0.55;;;10.40;96.70;;;;;;4963719;28;20042;-74
2021/12/06 09:59:09;;;;;;;1.55;0.50;;;10.40;96.70;;;;;;4944358;28;20074;-75
2021/12/06 10:01:44;;;;;;;1.67;0.85;;;10.40;96.70;;;;;;4946505;28;20059;-74
2021/12/06 10:04:15;;;;;;;0.80;0.50;;;10.50;96.70;;;;;;4946130;28;20042;-74
2021/12/06 10:06:45;;;;;;;0.73;0.50;;;10.60;96.70;;;;;;4958623;28;20066;-74
2021/12/06 10:09:15;;;;;;;1.33;0.52;;;10.70;96.70;;;;;;4964588;28;20035;-74
2021/12/06 10:11:43;;;;;;;1.58;0.60;;;10.70;96.70;;;;;;4941221;28;20137;-73
2021/12/06 10:14:12;;;;;;;2.22;0.70;;;10.70;96.70;;;;;;4965317;28;20417;-73
2021/12/06 10:16:42;;;;;;;1.50;0.80;;;10.70;96.70;;;;;;4945072;28;20124;-74
2021/12/06 10:19:10;;;;;;;1.10;0.65;;;10.80;96.70;;;;;;4947227;28;20038;-73
2021/12/06 10:21:39;;;;;;;2.10;0.63;;;10.90;96.70;;;;;;4946133;28;20039;-74
2021/12/06 10:24:10;;;;;;;1.77;0.90;;;10.90;96.70;;;;;;4965184;28;20070;-73
2021/12/06 10:26:38;;;;;;;1.45;0.80;;;11.00;96.70;;;;;;4943512;28;20062;-73
2021/12/06 10:29:08;;;;;;;1.83;0.88;;;11.00;96.70;;;;;;4942822;28;20517;-73
2021/12/06 10:31:42;;;;;;;2.15;0.90;;;11.10;96.70;;;;;;4945381;28;20092;-73
2021/12/06 10:34:14;;;;;;;3.38;1.65;;;11.20;96.70;;;;;;4946498;28;20552;-73
2021/12/06 10:36:42;;;;;;;1.08;0.70;;;11.20;96.70;;;;;;4945527;28;20046;-74
2021/12/06 10:39:10;;;;;;;1.08;0.40;;;11.20;96.70;;;;;;4947661;28;20039;-73
2021/12/06 10:41:41;;;;;;;0.85;0.50;;;11.20;96.70;;;;;;4960562;28;20043;-74
2021/12/06 10:44:11;;;;;;;1.20;0.52;;;11.30;96.70;;;;;;4943965;28;20402;-73
2021/12/06 10:46:42;;;;;;;1.00;0.35;;;11.20;96.70;;;;;;4939943;29;20118;-73
2021/12/06 10:49:14;;;;;;;1.00;0.40;;;11.20;96.70;;;;;;4964307;28;20042;-74
2021/12/06 10:51:42;;;;;;;0.63;0.30;;;11.20;96.70;;;;;;4942339;28;20506;-73
2021/12/06 10:54:20;;;;;;;1.10;0.40;;;11.20;96.70;;;;;;4964989;28;20595;-73
2021/12/06 10:56:52;;;;;;;1.55;0.60;;;11.30;96.70;;;;;;4941314;28;20158;-74
2021/12/06 10:59:23;;;;;;;0.80;0.45;;;11.30;96.70;;;;;;4945371;28;20524;-74
2021/12/06 11:01:55;;;;;;;0.98;0.40;;;11.40;96.70;;;;;;4963595;28;20051;-74
2021/12/06 11:04:28;;;;;;;1.63;0.40;;;11.40;96.70;;;;;;4946039;28;20043;-74
2021/12/06 11:07:05;;;;;;;2.97;0.90;;;11.50;96.70;;;;;;4965884;28;20519;-74
2021/12/06 11:09:36;;;;;;;1.05;0.50;;;11.50;96.70;;;;;;4949439;28;20038;-74
2021/12/06 11:12:07;;;;;;;3.30;1.58;;;11.60;96.70;;;;;;4947252;28;20061;-74
2021/12/06 11:14:37;;;;;;;6.53;4.47;;;11.70;96.70;;;;;;4961539;28;20094;-73
2021/12/06 11:17:09;;;;;;;5.43;3.78;;;11.70;96.70;;;;;;4968552;28;20409;-74
2021/12/06 11:19:37;;;;;;;2.53;1.45;;;11.70;96.70;;;;;;4960105;28;20047;-73
2021/12/06 11:22:08;;;;;;;1.02;0.68;;;11.70;96.70;;;;;;4934625;28;20098;-74
2021/12/06 11:24:41;;;;;;;2.38;0.50;;;11.80;96.70;;;;;;4948336;28;20062;-74
2021/12/06 11:27:11;;;;;;;1.00;0.50;;;11.70;96.70;;;;;;4948739;28;20512;-74
2021/12/06 11:29:41;;;;;;;0.40;0.30;;;11.80;96.70;;;;;;4930491;28;20415;-74
2021/12/06 11:32:15;;;;;;;0.60;0.43;;;11.80;96.70;;;;;;4965363;28;20046;-74
2021/12/06 11:34:48;;;;;;;1.70;0.40;;;11.90;96.70;;;;;;4939526;28;20050;-74
2021/12/06 11:37:19;;;;;;;1.00;0.52;;;11.90;96.70;;;;;;4951035;28;20050;-74
2021/12/06 11:39:50;;;;;;;1.85;0.60;;;12.10;96.70;;;;;;4963957;28;20282;-74
2021/12/06 11:42:18;;;;;;;2.00;0.40;;;12.20;96.70;;;;;;4963019;28;20736;-74
2021/12/06 11:44:47;;;;;;;1.42;0.60;;;12.20;96.70;;;;;;4946482;28;20125;-74
2021/12/06 11:47:19;;;;;;;0.82;0.55;;;12.40;96.70;;;;;;4967985;28;20039;-74
2021/12/06 11:49:52;;;;;;;2.83;0.60;;;12.50;96.70;;;;;;4944137;28;20059;-74
2021/12/06 11:52:22;;;;;;;1.20;0.70;;;12.50;96.70;;;;;;4949299;28;20446;-74
2021/12/06 11:54:54;;;;;;;1.10;0.60;;;12.60;96.70;;;;;;4965263;28;20062;-74
2021/12/06 11:57:27;;;;;;;1.60;0.60;;;12.70;96.70;;;;;;4962731;28;20046;-74
2021/12/06 11:59:59;;;;;;;1.25;0.70;;;12.80;96.70;;;;;;4966896;28;20065;-74
2021/12/06 12:02:42;;;;;;;3.90;0.93;;;12.90;96.70;;;;;;4948143;28;20186;-74
2021/12/06 12:05:24;;;;;;;2.05;0.70;;;12.80;96.70;;;;;;4966788;28;20047;-74
2021/12/06 12:07:58;;;;;;;3.05;1.75;;;12.80;96.70;;;;;;4959174;28;20078;-74
2021/12/06 12:10:28;;;;;;;2.85;1.40;;;12.80;96.70;;;;;;4945096;28;20046;-72
2021/12/06 12:12:56;;;;;;;2.25;1.10;;;12.90;96.70;;;;;;4946129;28;20137;-73
2021/12/06 12:15:25;;;;;;;1.30;0.90;;;12.90;96.70;;;;;;4937385;28;20047;-74
2021/12/06 12:17:54;;;;;;;1.70;1.30;;;13.00;96.70;;;;;;4930836;28;20409;-74
2021/12/06 12:20:43;;;;;;;1.02;0.50;;;13.10;96.70;;;;;;4937865;28;20055;-74
2021/12/06 12:23:11;;;;;;;0.85;0.55;;;13.20;96.70;;;;;;4944118;28;20137;-73
2021/12/06 12:26:06;;;;;;;1.63;0.50;;;13.20;96.70;;;;;;4965878;28;20046;-74
2021/12/06 12:28:36;;;;;;;2.70;0.90;;;13.30;96.70;;;;;;4944087;28;20053;-73
2021/12/06 12:31:08;;;;;;;1.25;0.82;;;13.20;96.70;;;;;;4961152;28;20146;-74
2021/12/06 12:33:39;;;;;;;3.10;0.90;;;13.20;96.70;;;;;;4949017;28;20062;-75
2021/12/06 12:36:11;;;;;;;2.35;0.93;;;13.30;96.70;;;;;;4945186;28;20988;-74
2021/12/06 12:38:42;;;;;;;0.93;0.43;;;13.40;96.70;;;;;;4917892;29;20053;-75
2021/12/06 12:41:14;;;;;;;0.40;0.40;;;13.30;96.50;;;;;;4962947;28;20158;-74
2021/12/06 12:43:44;;;;;;;1.00;0.60;;;13.20;96.40;;;;;;4960360;28;20448;-74
2021/12/06 12:46:15;;;;;;;1.48;0.77;;;13.10;96.70;;;;;;4963255;28;20047;-74
2021/12/06 12:48:52;;;;;;;0.68;0.40;;;13.20;96.70;;;;;;4944637;28;20090;-74
2021/12/06 12:51:22;;;;;;;;;;;13.20;96.70;;;;;;4962386;28;20398;-74
2021/12/06 12:53:57;;;;;;;0.75;0.40;;;13.20;96.70;;;;;;4949377;28;20185;-74
2021/12/06 12:56:27;;;;;;;0.52;0.50;;;13.10;96.10;;;;;;4960905;28;20051;-75
2021/12/06 12:58:56;;;;;;;1.48;0.50;;;13.10;96.10;;;;;;4939974;28;20142;-75
2021/12/06 13:01:26;;;;;;;0.63;0.40;;;13.10;96.20;;;;;;4962920;28;20073;-74
2021/12/06 13:03:58;;;;;;;2.00;0.60;;;13.10;95.40;;;;;;4949033;28;20456;-74
2021/12/06 13:06:29;;;;;;;1.02;0.63;;;13.10;96.00;;;;;;4941774;28;20046;-75
2021/12/06 13:09:01;;;;;;;3.15;0.80;;;13.20;96.00;;;;;;4966148;28;20074;-74
2021/12/06 13:11:51;;;;;;;1.00;0.68;;;13.20;96.30;;;;;;4940481;28;20076;-74
2021/12/06 13:14:27;;;;;;;1.67;0.57;;;13.20;96.40;;;;;;4942670;28;20501;-75
2021/12/06 13:17:01;;;;;;;2.35;0.70;;;13.20;96.70;;;;;;4947879;28;20051;-74
2021/12/06 13:22:09;;;;;;;0.75;0.40;;;13.10;96.40;;;;;;4949131;28;20053;-74
2021/12/06 13:24:47;;;;;;;2.15;0.82;;;12.90;95.60;;;;;;4963666;28;20485;-74